createdAt,value
2018-01-16T00:01:05.503Z,83.62
2018-01-16T00:03:51.328Z,84.10
2018-01-16T00:04:50.569Z,85.05
2018-01-16T00:06:54.303Z,85.43
2018-01-16T00:07:52.051Z,86.47
2018-01-16T00:09:58.030Z,87.34
2018-01-16T00:10:56.996Z,87.43
2018-01-16T00:13:04.127Z,87.81
2018-01-16T00:14:19.354Z,87.67
2018-01-16T00:16:04.975Z,88.15
2018-01-16T00:17:04.577Z,88.19
2018-01-16T00:21:07.221Z,88.24
2018-01-16T00:22:19.749Z,88.24
2018-01-16T00:24:45.251Z,88.62
2018-01-16T00:27:41.865Z,89.09
2018-01-16T00:28:21.290Z,89.38
2018-01-16T00:30:26.085Z,89.86
2018-01-16T00:31:25.111Z,90.52
2018-01-16T00:33:18.564Z,90.33
2018-01-16T00:34:18.526Z,90.80
2018-01-16T00:36:11.972Z,91.28
2018-01-16T00:37:11.959Z,90.52
2018-01-16T00:39:05.431Z,89.76
2018-01-16T00:40:05.394Z,89.95
2018-01-16T00:42:00.368Z,89.38
2018-01-16T00:42:59.912Z,88.90
2018-01-16T00:44:54.357Z,89.19
2018-01-16T00:45:53.378Z,89.19
2018-01-16T00:47:47.311Z,88.43
2018-01-16T00:48:46.783Z,88.81
2018-01-16T00:50:40.730Z,88.81
2018-01-16T00:51:40.240Z,89.00
2018-01-16T00:53:33.714Z,89.00
2018-01-16T00:54:33.662Z,88.90
2018-01-16T00:56:27.619Z,88.53
2018-01-16T00:57:27.112Z,89.28
2018-01-16T00:59:21.058Z,89.28
2018-01-16T01:00:20.552Z,89.95
2018-01-16T01:02:13.971Z,89.76
2018-01-16T01:03:13.951Z,89.95
2018-01-16T01:05:07.423Z,90.23
2018-01-16T01:06:07.408Z,90.33
2018-01-16T01:08:00.869Z,91.09
2018-01-16T01:09:01.366Z,90.80
2018-01-16T01:10:54.258Z,90.61
2018-01-16T01:11:54.791Z,90.90
2018-01-16T01:13:47.690Z,90.71
2018-01-16T01:14:47.680Z,91.09
2018-01-16T01:16:41.141Z,90.80
2018-01-16T01:17:41.112Z,91.19
2018-01-16T01:19:35.564Z,90.33
2018-01-16T01:20:34.522Z,90.52
2018-01-16T01:22:27.983Z,90.42
2018-01-16T01:23:27.950Z,90.42
2018-01-16T01:25:21.883Z,90.33
2018-01-16T01:26:21.373Z,89.57
2018-01-16T01:28:14.856Z,89.86
2018-01-16T01:29:14.795Z,89.76
2018-01-16T01:31:09.241Z,89.09
2018-01-16T01:32:09.751Z,89.28
2018-01-16T01:34:02.669Z,88.81
2018-01-16T01:35:04.176Z,89.00
2018-01-16T01:36:56.615Z,88.81
2018-01-16T01:37:56.098Z,88.81
2018-01-16T01:39:49.555Z,88.81
2018-01-16T01:40:50.065Z,89.00
2018-01-16T01:42:43.497Z,88.81
2018-01-16T01:43:42.935Z,88.53
2018-01-16T01:45:36.397Z,88.81
2018-01-16T01:46:36.374Z,88.81
2018-01-16T01:48:29.822Z,89.28
2018-01-16T01:49:29.804Z,89.28
2018-01-16T01:51:23.284Z,88.90
2018-01-16T01:52:23.244Z,89.09
2018-01-16T01:54:16.673Z,88.62
2018-01-16T01:55:16.668Z,88.62
2018-01-16T01:57:10.130Z,87.95
2018-01-16T01:58:10.108Z,87.67
2018-01-16T02:00:03.527Z,87.29
2018-01-16T02:01:03.535Z,87.48
2018-01-16T02:02:57.489Z,87.57
2018-01-16T02:03:57.490Z,87.57
2018-01-16T02:05:50.409Z,87.38
2018-01-16T02:06:50.361Z,87.29
2018-01-16T02:08:43.779Z,87.10
2018-01-16T02:09:43.776Z,86.72
2018-01-16T02:11:37.263Z,86.91
2018-01-16T02:12:37.219Z,87.19
2018-01-16T02:14:31.169Z,87.48
2018-01-16T02:15:31.183Z,87.29
2018-01-16T02:17:24.118Z,87.38
2018-01-16T02:18:24.105Z,87.76
2018-01-16T02:20:18.550Z,88.15
2018-01-16T02:21:18.518Z,88.71
2018-01-16T02:23:11.916Z,88.53
2018-01-16T02:24:11.901Z,89.00
2018-01-16T02:26:05.857Z,89.19
2018-01-16T02:27:05.332Z,89.19
2018-01-16T02:28:59.300Z,88.81
2018-01-16T02:29:58.751Z,88.34
2018-01-16T02:31:52.229Z,88.24
2018-01-16T02:32:52.198Z,88.24
2018-01-16T02:34:46.624Z,88.24
2018-01-16T02:35:46.612Z,88.24
2018-01-16T02:37:40.080Z,88.57
2018-01-16T02:38:40.070Z,88.48
2018-01-16T02:40:33.534Z,88.57
2018-01-16T02:41:33.507Z,88.95
2018-01-16T02:43:27.955Z,88.95
2018-01-16T02:44:27.961Z,88.67
2018-01-16T02:46:20.395Z,88.76
2018-01-16T02:47:20.388Z,88.29
2018-01-16T02:49:13.862Z,87.91
2018-01-16T02:50:13.831Z,87.24
2018-01-16T02:52:08.775Z,87.38
2018-01-16T02:53:07.284Z,86.72
2018-01-16T02:55:00.738Z,86.91
2018-01-16T02:56:00.707Z,86.24
2018-01-16T02:57:55.158Z,86.34
2018-01-16T02:58:54.161Z,86.24
2018-01-16T03:00:47.614Z,85.58
2018-01-16T03:01:48.092Z,85.68
2018-01-16T03:03:41.036Z,85.68
2018-01-16T03:04:41.031Z,85.68
2018-01-16T03:06:34.499Z,85.01
2018-01-16T03:07:34.462Z,85.11
2018-01-16T03:09:27.925Z,84.63
2018-01-16T03:10:27.895Z,84.63
2018-01-16T03:12:22.357Z,84.91
2018-01-16T03:13:21.297Z,85.30
2018-01-16T03:15:15.241Z,85.39
2018-01-16T03:16:14.723Z,84.53
2018-01-16T03:18:08.136Z,85.20
2018-01-16T03:19:08.693Z,84.63
2018-01-16T03:21:02.605Z,84.34
2018-01-16T03:22:02.097Z,84.06
2018-01-16T03:23:55.537Z,84.06
2018-01-16T03:24:54.998Z,84.16
2018-01-16T03:26:48.469Z,84.53
2018-01-16T03:27:48.426Z,84.16
2018-01-16T03:29:41.901Z,84.25
2018-01-16T03:30:41.847Z,83.59
2018-01-16T03:32:35.802Z,84.34
2018-01-16T03:33:35.244Z,84.25
2018-01-16T03:35:29.196Z,85.01
2018-01-16T03:36:29.199Z,84.72
2018-01-16T03:38:22.107Z,84.06
2018-01-16T03:39:22.086Z,84.63
2018-01-16T03:41:15.559Z,84.82
2018-01-16T03:42:15.521Z,84.34
2018-01-16T03:44:08.992Z,85.11
2018-01-16T03:45:08.958Z,84.53
2018-01-16T03:47:02.414Z,84.53
2018-01-16T03:48:02.393Z,84.72
2018-01-16T03:49:55.828Z,85.11
2018-01-16T03:50:55.817Z,85.11
2018-01-16T03:52:49.282Z,84.72
2018-01-16T03:53:49.208Z,84.44
2018-01-16T03:55:43.157Z,84.06
2018-01-16T03:56:42.620Z,84.16
2018-01-16T03:58:36.069Z,83.87
2018-01-16T03:59:36.588Z,84.06
2018-01-16T04:01:29.516Z,83.49
2018-01-16T04:02:29.497Z,83.39
2018-01-16T04:04:23.947Z,83.39
2018-01-16T04:05:24.439Z,83.30
2018-01-16T04:07:18.889Z,82.35
2018-01-16T04:08:18.375Z,81.87
2018-01-16T04:10:13.309Z,81.97
2018-01-16T04:11:11.791Z,81.21
2018-01-16T04:13:07.168Z,81.87
2018-01-16T04:14:05.214Z,81.87
2018-01-16T04:15:58.662Z,82.54
2018-01-16T04:16:58.639Z,82.64
2018-01-16T04:18:53.108Z,81.87
2018-01-16T04:19:53.085Z,81.87
2018-01-16T04:21:46.488Z,81.87
2018-01-16T04:22:46.499Z,81.87
2018-01-16T04:24:39.985Z,81.59
2018-01-16T04:25:40.443Z,80.74
2018-01-16T04:27:33.392Z,79.97
2018-01-16T04:28:33.907Z,80.64
2018-01-16T04:30:27.854Z,79.97
2018-01-16T04:31:26.802Z,79.60
2018-01-16T04:33:20.753Z,79.97
2018-01-16T04:34:20.782Z,79.97
2018-01-16T04:36:13.708Z,79.60
2018-01-16T04:37:13.662Z,80.45
2018-01-16T04:39:07.123Z,80.16
2018-01-16T04:40:07.112Z,80.64
2018-01-16T04:42:01.072Z,80.69
2018-01-16T04:43:00.528Z,80.60
2018-01-16T04:44:54.983Z,80.69
2018-01-16T04:45:53.948Z,80.88
2018-01-16T04:47:47.919Z,81.17
2018-01-16T04:48:47.379Z,81.93
2018-01-16T04:50:40.824Z,81.84
2018-01-16T04:51:40.843Z,81.45
2018-01-16T04:53:35.303Z,81.65
2018-01-16T04:54:35.297Z,81.84
2018-01-16T04:56:28.747Z,82.31
2018-01-16T04:57:28.772Z,82.59
2018-01-16T04:59:22.686Z,82.88
2018-01-16T05:00:22.158Z,83.07
2018-01-16T05:02:15.659Z,83.26
2018-01-16T05:03:15.554Z,84.30
2018-01-16T05:05:08.999Z,84.78
2018-01-16T05:06:09.006Z,84.40
2018-01-16T05:08:03.442Z,84.87
2018-01-16T05:09:03.927Z,85.72
2018-01-16T05:10:56.852Z,85.63
2018-01-16T05:11:57.355Z,86.11
2018-01-16T05:13:52.299Z,86.01
2018-01-16T05:14:51.279Z,86.16
2018-01-16T05:16:45.697Z,86.44
2018-01-16T05:17:45.679Z,87.01
2018-01-16T05:19:40.112Z,86.72
2018-01-16T05:20:40.133Z,87.49
2018-01-16T05:22:33.603Z,87.24
2018-01-16T05:23:33.539Z,87.43
2018-01-16T05:25:26.956Z,87.34
2018-01-16T05:26:26.946Z,87.24
2018-01-16T05:28:21.416Z,86.87
2018-01-16T05:29:21.397Z,87.62
2018-01-16T05:31:16.340Z,87.34
2018-01-16T05:32:16.320Z,87.82
2018-01-16T05:34:10.282Z,87.62
2018-01-16T05:35:10.750Z,87.72
2018-01-16T05:37:03.706Z,87.20
2018-01-16T05:38:04.178Z,87.53
2018-01-16T05:39:59.148Z,87.62
2018-01-16T05:40:58.097Z,87.62
2018-01-16T05:42:53.049Z,87.72
2018-01-16T05:43:52.052Z,87.62
2018-01-16T05:45:44.917Z,87.72
2018-01-16T05:46:45.455Z,87.24
2018-01-16T05:48:38.369Z,87.24
2018-01-16T05:49:38.875Z,87.53
2018-01-16T05:51:32.834Z,87.24
2018-01-16T05:52:32.871Z,87.15
2018-01-16T05:54:26.285Z,87.24
2018-01-16T05:55:26.239Z,87.34
2018-01-16T05:57:20.665Z,87.24
2018-01-16T05:58:21.202Z,87.34
2018-01-16T06:00:15.133Z,86.77
2018-01-16T06:01:15.092Z,86.68
2018-01-16T06:03:09.507Z,87.43
2018-01-16T06:04:09.532Z,86.77
2018-01-16T06:06:02.939Z,87.05
2018-01-16T06:07:03.455Z,86.77
2018-01-16T06:08:57.379Z,87.29
2018-01-16T06:09:57.887Z,86.68
2018-01-16T06:11:51.809Z,86.58
2018-01-16T06:12:51.807Z,86.34
2018-01-16T06:14:45.220Z,86.34
2018-01-16T06:15:45.248Z,86.43
2018-01-16T06:17:38.701Z,85.58
2018-01-16T06:18:38.665Z,85.11
2018-01-16T06:20:32.105Z,85.30
2018-01-16T06:21:32.097Z,85.01
2018-01-16T06:23:27.546Z,84.72
2018-01-16T06:24:26.514Z,84.63
2018-01-16T06:26:20.959Z,84.53
2018-01-16T06:27:20.940Z,84.25
2018-01-16T06:29:15.904Z,83.59
2018-01-16T06:30:15.374Z,82.92
2018-01-16T06:32:09.826Z,82.82
2018-01-16T06:33:10.817Z,83.01
2018-01-16T06:35:05.747Z,82.54
2018-01-16T06:36:05.738Z,82.73
2018-01-16T06:37:59.218Z,82.26
2018-01-16T06:38:59.190Z,82.39
2018-01-16T06:40:54.146Z,81.92
2018-01-16T06:41:53.609Z,82.01
2018-01-16T06:43:48.052Z,81.73
2018-01-16T06:44:48.545Z,82.10
2018-01-16T06:46:42.492Z,81.92
2018-01-16T06:47:42.490Z,81.54
2018-01-16T06:49:35.903Z,81.92
2018-01-16T06:50:37.447Z,82.58
2018-01-16T06:52:31.276Z,82.77
2018-01-16T06:53:30.316Z,82.49
2018-01-16T06:55:23.744Z,84.10
2018-01-16T06:56:23.763Z,84.39
2018-01-16T06:58:21.202Z,85.01
2018-01-16T06:59:19.716Z,85.49
2018-01-16T07:01:14.193Z,85.77
2018-01-16T07:02:14.204Z,85.77
2018-01-16T07:04:07.674Z,86.15
2018-01-16T07:05:07.660Z,87.29
2018-01-16T07:07:01.059Z,86.34
2018-01-16T07:08:01.079Z,86.72
2018-01-16T07:09:54.504Z,86.72
2018-01-16T07:10:55.002Z,86.63
2018-01-16T07:12:49.447Z,86.91
2018-01-16T07:13:48.909Z,86.82
2018-01-16T07:15:43.846Z,87.01
2018-01-16T07:16:42.327Z,87.10
2018-01-16T07:18:37.268Z,86.63
2018-01-16T07:19:37.279Z,86.53
2018-01-16T07:21:30.209Z,86.82
2018-01-16T07:22:30.704Z,87.01
2018-01-16T07:24:24.633Z,87.48
2018-01-16T07:25:23.610Z,87.67
2018-01-16T07:27:17.031Z,87.29
2018-01-16T07:28:17.046Z,87.48
2018-01-16T07:30:10.985Z,87.38
2018-01-16T07:31:10.477Z,87.48
2018-01-16T07:33:04.423Z,87.67
2018-01-16T07:34:03.880Z,87.57
2018-01-16T07:35:59.862Z,87.67
2018-01-16T07:37:00.835Z,87.95
2018-01-16T07:38:54.800Z,87.48
2018-01-16T07:39:53.799Z,86.91
2018-01-16T07:41:47.742Z,87.67
2018-01-16T07:42:47.728Z,87.57
2018-01-16T07:44:44.167Z,87.48
2018-01-16T07:45:43.650Z,87.57
2018-01-16T07:47:38.110Z,86.34
2018-01-16T07:48:38.084Z,86.15
2018-01-16T07:50:32.553Z,86.15
2018-01-16T07:51:33.056Z,85.30
2018-01-16T07:53:26.982Z,84.72
2018-01-16T07:54:26.964Z,84.25
2018-01-16T07:56:20.425Z,83.68
2018-01-16T07:57:20.905Z,84.53
2018-01-16T07:59:13.862Z,83.59
2018-01-16T08:00:13.834Z,84.53
2018-01-16T08:02:07.298Z,83.44
2018-01-16T08:03:07.271Z,83.34
2018-01-16T08:05:00.739Z,83.15
2018-01-16T08:06:00.728Z,83.34
2018-01-16T08:07:54.693Z,83.06
2018-01-16T08:08:54.155Z,82.20
2018-01-16T08:10:47.608Z,82.39
2018-01-16T08:11:48.106Z,82.29
2018-01-16T08:13:41.035Z,83.25
2018-01-16T08:14:42.552Z,82.96
2018-01-16T08:16:35.484Z,83.72
2018-01-16T08:17:35.440Z,83.15
2018-01-16T08:19:28.873Z,83.62
2018-01-16T08:20:28.877Z,82.96
2018-01-16T08:22:24.849Z,83.82
2018-01-16T08:23:25.756Z,83.15
2018-01-16T08:25:18.741Z,82.68
2018-01-16T08:26:18.208Z,82.58
2018-01-16T08:28:11.653Z,82.87
2018-01-16T08:29:11.631Z,82.49
2018-01-16T08:31:06.116Z,83.25
2018-01-16T08:32:06.057Z,83.15
2018-01-16T08:34:02.032Z,82.39
2018-01-16T08:35:00.487Z,82.29
2018-01-16T08:36:54.984Z,82.10
2018-01-16T08:37:54.960Z,82.20
2018-01-16T08:39:50.903Z,82.20
2018-01-16T08:40:50.858Z,81.92
2018-01-16T08:42:44.292Z,81.63
2018-01-16T08:43:44.271Z,82.01
2018-01-16T08:45:37.746Z,81.06
2018-01-16T08:46:37.715Z,81.63
2018-01-16T08:48:31.660Z,80.96
2018-01-16T08:49:31.146Z,80.49
2018-01-16T08:51:25.609Z,80.30
2018-01-16T08:52:25.583Z,80.21
2018-01-16T08:54:19.034Z,80.49
2018-01-16T08:55:19.022Z,80.21
2018-01-16T08:57:12.484Z,79.54
2018-01-16T08:58:12.477Z,79.25
2018-01-16T09:00:07.917Z,80.11
2018-01-16T09:01:06.917Z,79.92
2018-01-16T09:03:00.307Z,79.25
2018-01-16T09:04:00.326Z,79.83
2018-01-16T09:05:54.758Z,79.92
2018-01-16T09:06:54.772Z,79.83
2018-01-16T09:08:48.225Z,79.73
2018-01-16T09:09:48.709Z,79.49
2018-01-16T09:11:44.629Z,79.49
2018-01-16T09:12:45.067Z,79.11
2018-01-16T09:14:37.548Z,79.11
2018-01-16T09:15:37.555Z,78.25
2018-01-16T09:17:31.972Z,78.34
2018-01-16T09:18:31.959Z,77.68
2018-01-16T09:20:26.427Z,77.49
2018-01-16T09:21:26.396Z,77.97
2018-01-16T09:23:20.838Z,77.01
2018-01-16T09:24:20.839Z,77.11
2018-01-16T09:26:14.296Z,77.11
2018-01-16T09:27:14.280Z,77.20
2018-01-16T09:29:07.711Z,77.30
2018-01-16T09:30:07.700Z,76.54
2018-01-16T09:32:01.662Z,76.54
2018-01-16T09:33:01.127Z,75.96
2018-01-16T09:34:54.568Z,75.96
2018-01-16T09:35:54.545Z,76.44
2018-01-16T09:37:48.020Z,76.06
2018-01-16T09:38:48.502Z,76.16
2018-01-16T09:40:41.446Z,76.63
2018-01-16T09:41:41.468Z,76.44
2018-01-16T09:43:34.888Z,76.06
2018-01-16T09:44:35.810Z,75.78
2018-01-16T09:46:29.302Z,76.16
2018-01-16T09:47:29.806Z,75.02
2018-01-16T09:49:23.259Z,75.40
2018-01-16T09:50:22.714Z,75.72
2018-01-16T09:52:16.182Z,74.29
2018-01-16T09:53:16.100Z,74.39
2018-01-16T09:55:10.572Z,74.10
2018-01-16T09:56:09.585Z,74.07
2018-01-16T09:58:04.539Z,74.73
2018-01-16T09:59:04.038Z,74.82
2018-01-16T10:00:57.640Z,74.44
2018-01-16T10:01:57.575Z,74.35
2018-01-16T10:03:52.057Z,74.63
2018-01-16T10:04:52.008Z,75.30
2018-01-16T10:06:45.986Z,76.44
2018-01-16T10:07:47.700Z,76.35
2018-01-16T10:09:39.423Z,77.01
2018-01-16T10:10:38.913Z,75.59
2018-01-16T10:12:33.367Z,75.87
2018-01-16T10:13:32.858Z,76.63
2018-01-16T10:15:27.281Z,75.84
2018-01-16T10:16:27.269Z,75.64
2018-01-16T10:18:21.694Z,75.64
2018-01-16T10:19:20.174Z,76.03
2018-01-16T10:21:15.134Z,75.36
2018-01-16T10:22:14.662Z,75.07
2018-01-16T10:24:10.604Z,75.11
2018-01-16T10:25:09.097Z,75.78
2018-01-16T10:27:04.035Z,73.78
2018-01-16T10:28:02.504Z,74.35
2018-01-16T10:29:56.965Z,73.78
2018-01-16T10:30:56.958Z,73.78
2018-01-16T10:32:51.363Z,73.30
2018-01-16T10:33:51.348Z,73.40
2018-01-16T10:35:44.856Z,73.97
2018-01-16T10:36:44.790Z,73.40
2018-01-16T10:38:38.250Z,73.46
2018-01-16T10:39:38.220Z,73.30
2018-01-16T10:41:31.633Z,72.55
2018-01-16T10:42:31.656Z,72.55
2018-01-16T10:44:26.085Z,72.51
2018-01-16T10:45:25.295Z,72.74
2018-01-16T10:47:18.775Z,72.92
2018-01-16T10:48:18.739Z,72.55
2018-01-16T10:50:12.677Z,72.55
2018-01-16T10:51:12.155Z,72.07
2018-01-16T10:53:05.622Z,72.51
2018-01-16T10:54:05.547Z,72.99
2018-01-16T10:55:59.020Z,73.11
2018-01-16T10:56:58.981Z,73.11
2018-01-16T10:58:52.953Z,73.33
2018-01-16T10:59:52.411Z,75.60
2018-01-16T11:01:46.864Z,80.51
2018-01-16T11:02:45.828Z,82.12
2018-01-16T11:04:39.801Z,83.97
2018-01-16T11:05:39.277Z,84.92
2018-01-16T11:07:33.216Z,86.63
2018-01-16T11:08:32.712Z,85.49
2018-01-16T11:10:26.184Z,86.44
2018-01-16T11:11:26.165Z,84.64
2018-01-16T11:13:21.083Z,82.27
2018-01-16T11:14:21.085Z,81.74
2018-01-16T11:16:15.026Z,80.60
2018-01-16T11:17:15.025Z,80.79
2018-01-16T11:19:08.957Z,81.17
2018-01-16T11:20:08.454Z,80.51
2018-01-16T11:22:02.404Z,82.59
2018-01-16T11:23:01.895Z,83.07
2018-01-16T11:24:55.854Z,84.11
2018-01-16T11:25:55.345Z,84.97
2018-01-16T11:27:49.269Z,86.54
2018-01-16T11:28:48.746Z,86.16
2018-01-16T11:30:43.173Z,86.77
2018-01-16T11:31:43.173Z,85.68
2018-01-16T11:33:36.631Z,85.72
2018-01-16T11:34:36.605Z,85.02
2018-01-16T11:36:31.035Z,83.40
2018-01-16T11:37:31.026Z,84.17
2018-01-16T11:39:25.490Z,83.07
2018-01-16T11:40:25.992Z,82.78
2018-01-16T11:42:18.962Z,81.65
2018-01-16T11:43:18.859Z,81.84
2018-01-16T11:45:12.302Z,81.84
2018-01-16T11:46:12.811Z,82.50
2018-01-16T11:48:06.239Z,81.84
2018-01-16T11:49:05.726Z,81.60
2018-01-16T11:50:59.178Z,81.60
2018-01-16T11:51:59.169Z,81.60
2018-01-16T11:53:55.105Z,81.79
2018-01-16T11:54:53.581Z,83.03
2018-01-16T11:56:47.052Z,83.22
2018-01-16T11:57:47.032Z,83.59
2018-01-16T11:59:40.956Z,85.02
2018-01-16T12:00:40.432Z,85.11
2018-01-16T12:02:34.902Z,85.59
2018-01-16T12:03:34.871Z,86.16
2018-01-16T12:05:29.312Z,86.40
2018-01-16T12:06:28.324Z,86.59
2018-01-16T12:08:23.750Z,86.97
2018-01-16T12:09:22.760Z,87.54
2018-01-16T12:11:16.159Z,89.01
2018-01-16T12:12:16.162Z,89.67
2018-01-16T12:14:12.079Z,91.09
2018-01-16T12:15:12.067Z,91.00
2018-01-16T12:17:06.518Z,91.57
2018-01-16T12:18:06.501Z,91.85
2018-01-16T12:20:02.389Z,92.04
2018-01-16T12:21:00.932Z,92.33
2018-01-16T12:22:54.893Z,93.08
2018-01-16T12:23:53.843Z,92.71
2018-01-16T12:25:49.800Z,91.47
2018-01-16T12:26:49.775Z,91.95
2018-01-16T12:28:44.252Z,91.28
2018-01-16T12:31:10.995Z,92.14
2018-01-16T12:32:09.881Z,91.76
2018-01-16T12:34:18.317Z,92.42
2018-01-16T12:35:16.704Z,91.95
2018-01-16T12:37:14.609Z,91.00
2018-01-16T12:38:14.990Z,90.91
2018-01-16T12:40:07.593Z,90.43
2018-01-16T12:41:06.629Z,91.05
2018-01-16T12:43:02.538Z,90.01
2018-01-16T12:44:02.511Z,90.77
2018-01-16T12:45:56.932Z,92.19
2018-01-16T12:46:57.902Z,91.33
2018-01-16T12:48:53.877Z,93.51
2018-01-16T12:49:51.970Z,93.89
2018-01-16T12:51:44.972Z,93.80
2018-01-16T12:52:44.381Z,93.61
2018-01-16T12:54:39.332Z,94.27
2018-01-16T12:55:38.796Z,94.18
2018-01-16T12:57:32.760Z,93.42
2018-01-16T12:58:32.302Z,93.32
2018-01-16T13:00:27.038Z,93.89
2018-01-16T13:01:27.916Z,93.61
2018-01-16T13:03:22.259Z,93.70
2018-01-16T13:04:21.460Z,93.23
2018-01-16T13:06:15.894Z,93.04
2018-01-16T13:07:15.876Z,92.57
2018-01-16T13:09:10.284Z,93.08
2018-01-16T13:10:10.299Z,93.27
2018-01-16T13:12:05.268Z,93.08
2018-01-16T13:13:04.752Z,92.80
2018-01-16T13:14:58.705Z,93.27
2018-01-16T13:15:58.825Z,93.27
2018-01-16T13:17:53.114Z,93.56
2018-01-16T13:18:52.576Z,93.46
2018-01-16T13:20:47.012Z,93.84
2018-01-16T13:21:47.163Z,94.32
2018-01-16T13:24:01.022Z,95.07
2018-01-16T13:26:38.125Z,94.79
2018-01-16T13:27:32.152Z,93.65
2018-01-16T13:29:24.816Z,93.94
2018-01-16T13:30:24.778Z,93.46
2018-01-16T13:32:19.390Z,92.52
2018-01-16T13:33:19.389Z,92.42
2018-01-16T13:35:20.017Z,92.52
2018-01-16T13:38:11.035Z,94.27
2018-01-16T13:39:11.030Z,94.18
2018-01-16T13:41:04.506Z,93.51
2018-01-16T13:42:04.465Z,93.51
2018-01-16T13:44:00.441Z,95.03
2018-01-16T13:45:00.426Z,95.31
2018-01-16T13:46:57.776Z,95.50
2018-01-16T13:47:54.859Z,95.98
2018-01-16T13:49:49.323Z,95.50
2018-01-16T13:50:49.834Z,96.17
2018-01-16T13:52:55.763Z,95.88
2018-01-16T13:53:56.768Z,96.17
2018-01-16T13:56:01.624Z,96.45
2018-01-16T13:57:01.612Z,95.88
2018-01-16T13:59:12.589Z,93.42
2018-01-16T14:00:04.322Z,92.85
2018-01-16T14:01:56.215Z,93.46
2018-01-16T14:02:56.224Z,93.65
2018-01-16T14:04:53.178Z,93.46
2018-01-16T14:05:52.663Z,93.65
2018-01-16T14:07:46.623Z,93.84
2018-01-16T14:08:46.567Z,93.46
2018-01-16T14:10:40.973Z,93.27
2018-01-16T14:11:40.997Z,92.90
2018-01-16T14:13:35.290Z,92.14
2018-01-16T14:14:35.277Z,91.95
2018-01-16T14:16:29.733Z,90.91
2018-01-16T14:17:29.693Z,90.72
2018-01-16T14:19:24.131Z,91.05
2018-01-16T14:20:24.756Z,90.19
2018-01-16T14:22:17.579Z,89.43
2018-01-16T14:23:17.681Z,90.38
2018-01-16T14:25:11.964Z,90.67
2018-01-16T14:26:11.913Z,90.48
2018-01-16T14:28:07.313Z,90.95
2018-01-16T14:29:06.356Z,89.34
2018-01-16T14:31:01.297Z,90.10
2018-01-16T14:32:00.783Z,90.76
2018-01-16T14:33:55.207Z,89.72
2018-01-16T14:34:55.200Z,90.57
2018-01-16T14:36:50.146Z,90.95
2018-01-16T14:37:49.622Z,90.57
2018-01-16T14:39:44.039Z,90.38
2018-01-16T14:40:44.040Z,90.10
2018-01-16T14:42:38.470Z,90.19
2018-01-16T14:43:38.429Z,91.14
2018-01-16T14:45:32.878Z,90.95
2018-01-16T14:46:32.859Z,91.24
2018-01-16T14:48:27.371Z,91.42
2018-01-16T14:49:28.296Z,91.61
2018-01-16T14:51:21.820Z,91.61
2018-01-16T14:52:21.813Z,91.90
2018-01-16T14:54:16.236Z,91.24
2018-01-16T14:55:16.242Z,91.80
2018-01-16T14:57:15.704Z,93.04
2018-01-16T14:58:16.173Z,93.32
2018-01-16T15:00:12.078Z,93.13
2018-01-16T15:01:08.971Z,93.13
2018-01-16T15:03:04.864Z,93.13
2018-01-16T15:04:04.843Z,91.90
2018-01-16T15:05:59.311Z,88.68
2018-01-16T15:06:59.291Z,88.16
2018-01-16T15:08:53.761Z,88.73
2018-01-16T15:09:53.771Z,88.16
2018-01-16T15:11:48.723Z,89.58
2018-01-16T15:12:48.211Z,88.73
2018-01-16T15:14:43.157Z,89.67
2018-01-16T15:15:42.633Z,89.39
2018-01-16T15:17:37.052Z,89.58
2018-01-16T15:18:37.038Z,89.67
2018-01-16T15:20:31.500Z,89.96
2018-01-16T15:21:31.477Z,90.24
2018-01-16T15:23:25.437Z,91.19
2018-01-16T15:24:24.889Z,91.09
2018-01-16T15:26:18.308Z,91.38
2018-01-16T15:27:18.315Z,91.76
2018-01-16T15:29:11.790Z,91.19
2018-01-16T15:30:11.735Z,90.43
2018-01-16T15:32:06.179Z,91.38
2018-01-16T15:33:06.172Z,91.57
2018-01-16T15:35:00.120Z,92.04
2018-01-16T15:35:59.598Z,92.61
2018-01-16T15:37:53.072Z,92.80
2018-01-16T15:38:53.022Z,92.80
2018-01-16T15:40:46.977Z,93.56
2018-01-16T15:41:46.459Z,93.27
2018-01-16T15:43:40.403Z,90.43
2018-01-16T15:44:39.885Z,90.15
2018-01-16T15:46:33.317Z,89.11
2018-01-16T15:47:33.830Z,88.25
2018-01-16T15:49:26.735Z,88.96
2018-01-16T15:50:26.737Z,88.63
2018-01-16T15:52:21.124Z,89.01
2018-01-16T15:53:21.139Z,87.77
2018-01-16T15:55:16.078Z,88.44
2018-01-16T15:56:14.552Z,87.87
2018-01-16T15:58:08.965Z,88.82
2018-01-16T15:59:09.494Z,88.25
2018-01-16T16:01:03.437Z,88.16
2018-01-16T16:02:04.917Z,88.35
2018-01-16T16:03:57.856Z,89.58
2018-01-16T16:04:57.838Z,89.20
2018-01-16T16:06:51.767Z,89.20
2018-01-16T16:07:51.246Z,88.54
2018-01-16T16:09:44.702Z,89.48
2018-01-16T16:10:45.630Z,89.77
2018-01-16T16:12:38.642Z,90.15
2018-01-16T16:13:38.099Z,89.77
2018-01-16T16:15:31.564Z,89.67
2018-01-16T16:16:32.044Z,90.15
2018-01-16T16:18:25.941Z,90.81
2018-01-16T16:19:25.944Z,91.38
2018-01-16T16:21:19.406Z,90.62
2018-01-16T16:22:19.359Z,90.43
2018-01-16T16:24:13.787Z,89.48
2018-01-16T16:25:14.307Z,89.58
2018-01-16T16:27:08.236Z,90.05
2018-01-16T16:28:08.721Z,89.96
2018-01-16T16:30:03.125Z,90.81
2018-01-16T16:31:01.667Z,91.28
2018-01-16T16:32:55.003Z,90.53
2018-01-16T16:33:55.007Z,89.86
2018-01-16T16:35:48.464Z,89.58
2018-01-16T16:36:48.422Z,89.96
2018-01-16T16:38:43.684Z,90.05
2018-01-16T16:39:44.401Z,89.86
2018-01-16T16:41:38.148Z,90.53
2018-01-16T16:42:38.129Z,89.96
2018-01-16T16:44:32.500Z,89.77
2018-01-16T16:45:31.536Z,89.58
2018-01-16T16:47:25.495Z,90.05
2018-01-16T16:48:25.489Z,91.00
2018-01-16T16:50:19.385Z,91.47
2018-01-16T16:51:19.389Z,91.38
2018-01-16T16:53:13.330Z,90.81
2018-01-16T16:54:12.794Z,90.43
2018-01-16T16:56:07.226Z,90.05
2018-01-16T16:57:07.228Z,90.05
2018-01-16T16:59:01.174Z,89.86
2018-01-16T17:00:01.604Z,89.29
2018-01-16T17:01:55.075Z,89.77
2018-01-16T17:02:55.584Z,89.67
2018-01-16T17:04:49.478Z,90.24
2018-01-16T17:05:50.011Z,90.05
2018-01-16T17:07:43.421Z,90.24
2018-01-16T17:08:42.896Z,90.81
2018-01-16T17:10:36.345Z,92.23
2018-01-16T17:11:36.333Z,91.47
2018-01-16T17:13:30.320Z,91.76
2018-01-16T17:14:31.275Z,91.66
2018-01-16T17:16:24.228Z,91.47
2018-01-16T17:17:23.203Z,91.66
2018-01-16T17:19:16.657Z,91.85
2018-01-16T17:20:16.647Z,92.42
2018-01-16T17:22:10.089Z,91.95
2018-01-16T17:23:10.086Z,91.66
2018-01-16T17:25:05.029Z,91.57
2018-01-16T17:26:04.523Z,91.85
2018-01-16T17:27:57.987Z,91.76
2018-01-16T17:29:00.409Z,92.33
2018-01-16T17:30:57.339Z,92.04
2018-01-16T17:31:54.779Z,91.47
2018-01-16T17:34:02.258Z,88.35
2018-01-16T17:36:26.580Z,88.44
2018-01-16T17:37:25.518Z,88.06
2018-01-16T17:39:19.131Z,88.16
2018-01-16T17:40:19.631Z,88.82
2018-01-16T17:42:13.084Z,89.58
2018-01-16T17:43:12.494Z,89.67
2018-01-16T17:45:07.459Z,89.67
2018-01-16T17:46:06.911Z,90.62
2018-01-16T17:48:01.373Z,91.00
2018-01-16T17:49:01.364Z,90.72
2018-01-16T17:50:57.804Z,90.34
2018-01-16T17:51:57.799Z,90.43
2018-01-16T17:53:53.190Z,90.53
2018-01-16T17:54:53.194Z,90.43
2018-01-16T17:56:50.144Z,90.43
2018-01-16T17:57:49.107Z,90.05
2018-01-16T17:59:45.554Z,90.24
2018-01-16T18:00:45.029Z,89.67
2018-01-16T18:02:41.980Z,89.48
2018-01-16T18:03:40.923Z,89.96
2018-01-16T18:05:36.866Z,90.34
2018-01-16T18:06:36.876Z,91.09
2018-01-16T18:08:33.811Z,91.09
2018-01-16T18:09:33.335Z,91.00
2018-01-16T18:11:29.258Z,91.66
2018-01-16T18:12:28.718Z,91.28
2018-01-16T18:14:26.686Z,91.47
2018-01-16T18:15:27.170Z,90.53
2018-01-16T18:17:21.077Z,90.05
2018-01-16T18:18:21.066Z,90.34
2018-01-16T18:20:17.532Z,90.53
2018-01-16T18:21:17.523Z,90.15
2018-01-16T18:23:12.960Z,89.67
2018-01-16T18:24:12.912Z,89.39
2018-01-16T18:26:09.357Z,88.82
2018-01-16T18:27:09.339Z,88.73
2018-01-16T18:29:05.276Z,88.25
2018-01-16T18:30:04.747Z,88.06
2018-01-16T18:32:01.194Z,88.44
2018-01-16T18:33:01.204Z,88.63
2018-01-16T18:34:56.643Z,87.87
2018-01-16T18:35:56.592Z,88.25
2018-01-16T18:37:53.107Z,88.35
2018-01-16T18:38:52.533Z,87.49
2018-01-16T18:40:48.515Z,87.40
2018-01-16T18:41:48.443Z,88.54
2018-01-16T18:43:44.429Z,88.44
2018-01-16T18:44:44.405Z,88.35
2018-01-16T18:46:41.866Z,88.16
2018-01-16T18:47:40.298Z,87.40
2018-01-16T18:49:36.260Z,87.59
2018-01-16T18:50:36.207Z,87.97
2018-01-16T18:52:32.693Z,88.54